Terminal Aerodrome Forecast
Issued by NWS

Home | Current Version | Previous Version | Text Only | Print | Product List | Glossary On
Versions: 1 2 3 4 5 6 7 8 9 10 11 12 13 14 15 16 17 18 19 20 21 22 23 24 25 26 27 28 29 30 31 32 33
000
FTUS42 KCAE 310707 AAA
TAFCUB
TAF AMD
KCUB 310707Z 3107/0106 VRB04KT P6SM VCSH BKN004 OVC080
     FM311000 VRB03KT P6SM OVC005
      TEMPO 3110/3114 4SM BR
     FM311800 30005KT P6SM SCT020 BKN050
     FM010000 VRB03KT P6SM SCT050 BKN150=

USA.gov is the U.S. government's official web portal to all federal, state and local government web resources and services.